Time;durP1;ratioP1;P1;durP2;ratioP2;P2;SDS_P1;SDS_P2;PMS_P1;PMS_P2;Temp;Humidity;BMP_temperature;BMP_pressure;BME280_temperature;BME280_humidity;BME280_pressure;Samples;Min_cycle;Max_cycle;Signal;HPM_P1;HPM_P2
2022/10/08 00:01:30;;;;;;;8.10;7.00;;;11.70;99.90;;;-141.84;85.40;18535.69;5092885;28;20204;-63
2022/10/08 00:04:00;;;;;;;8.67;7.27;;;11.80;99.90;;;-141.84;84.94;18511.31;5091738;28;20295;-64
2022/10/08 00:06:31;;;;;;;7.63;6.83;;;11.80;99.90;;;-141.84;84.94;18535.69;5092237;28;20223;-63
2022/10/08 00:09:02;;;;;;;7.97;7.17;;;11.80;99.90;;;-141.84;84.80;18525.53;5092130;28;20723;-62
2022/10/08 00:11:33;;;;;;;11.17;7.33;;;11.80;99.90;;;-141.84;84.14;18517.41;5092059;28;20307;-62
2022/10/08 00:14:01;;;;;;;8.00;7.20;;;11.90;99.90;;;-141.84;83.48;18553.97;5091635;28;20910;-64
2022/10/08 00:16:32;;;;;;;8.20;7.40;;;11.90;99.90;;;-141.84;83.43;18547.88;5092610;28;20205;-62
2022/10/08 00:19:05;;;;;;;7.70;7.00;;;12.00;99.90;;;-141.84;83.50;18549.91;5091755;28;20228;-64
2022/10/08 00:21:36;;;;;;;8.80;7.60;;;12.00;99.90;;;-141.84;82.87;18556.00;5092000;28;20223;-63
2022/10/08 00:24:07;;;;;;;7.73;6.07;;;12.10;99.90;;;-141.84;82.95;18521.47;5091643;28;20273;-62
2022/10/08 00:26:37;;;;;;;8.10;7.30;;;12.10;99.90;;;-141.84;83.06;18529.59;5091757;28;20228;-62
2022/10/08 00:29:13;;;;;;;9.07;7.00;;;12.00;99.90;;;-141.84;83.12;18582.44;5091577;28;20302;-63
2022/10/08 00:31:44;;;;;;;8.50;6.80;;;12.10;99.90;;;-141.84;83.09;18543.81;5092223;28;20222;-65
2022/10/08 00:34:18;;;;;;;7.67;6.87;;;12.00;99.90;;;-141.84;83.31;18527.56;5091231;28;20259;-62
2022/10/08 00:36:50;;;;;;;8.63;7.07;;;12.00;99.90;;;-141.84;83.45;18551.94;5091494;28;20231;-63
2022/10/08 00:39:23;;;;;;;7.87;7.03;;;12.10;99.90;;;-141.84;83.52;18533.66;5091701;28;20573;-62
2022/10/08 00:41:55;;;;;;;7.67;6.97;;;12.00;99.90;;;-141.84;83.39;18539.75;5090797;28;20250;-63
2022/10/08 00:44:54;;;;;;;10.93;6.67;;;12.10;99.90;;;-141.84;83.38;18501.16;5090703;28;20220;-62
2022/10/08 00:47:38;;;;;;;11.57;7.53;;;12.00;99.90;;;-141.84;82.84;18537.72;5091375;28;20268;-63
2022/10/08 00:50:15;;;;;;;8.10;7.30;;;12.10;99.90;;;-141.84;82.03;18497.09;5091453;28;20210;-63
2022/10/08 00:52:47;;;;;;;10.00;7.00;;;12.10;99.90;;;-141.84;82.43;18533.66;5091223;28;20184;-63
2022/10/08 00:55:19;;;;;;;9.23;7.27;;;12.10;99.90;;;-141.84;82.42;18539.75;5091610;28;20529;-62
2022/10/08 00:57:48;;;;;;;7.33;6.63;;;12.10;99.90;;;-141.84;82.69;18507.25;5091036;28;20230;-62
2022/10/08 01:00:21;;;;;;;8.73;6.87;;;12.10;99.90;;;-141.84;83.02;18503.19;5091040;28;20235;-62
2022/10/08 01:02:50;;;;;;;11.07;7.40;;;12.00;99.90;;;-141.84;83.27;18505.22;5091022;28;20216;-62
2022/10/08 01:05:40;;;;;;;7.60;6.67;;;12.00;99.90;;;-141.84;83.28;18517.41;5090566;28;20718;-64
2022/10/08 01:08:23;;;;;;;9.53;7.07;;;12.00;99.90;;;-141.84;83.27;18501.16;5091149;28;20224;-63
2022/10/08 01:11:00;;;;;;;8.33;6.47;;;11.90;99.90;;;-141.84;83.71;18478.81;5090956;28;20191;-63
2022/10/08 01:13:41;;;;;;;8.47;6.80;;;11.90;99.90;;;-141.84;83.88;18486.94;5091345;28;20204;-63
2022/10/08 01:16:25;;;;;;;10.23;7.43;;;11.80;99.90;;;-141.84;84.43;18444.28;5090737;28;20219;-64
2022/10/08 01:19:18;;;;;;;8.90;8.00;;;11.70;99.90;;;-141.84;84.53;18466.63;5090537;28;20224;-63
2022/10/08 01:22:03;;;;;;;9.33;7.70;;;11.70;99.90;;;-141.84;84.67;18458.50;5090682;28;20598;-63
2022/10/08 01:27:46;;;;;;;12.23;8.30;;;11.70;99.90;;;-141.84;84.82;18440.22;5054844;28;20231;-63
2022/10/08 01:30:18;;;;;;;8.97;7.23;;;11.70;99.90;;;-141.84;84.83;18452.41;5091825;28;20219;-65
2022/10/08 01:32:55;;;;;;;13.47;8.80;;;11.60;99.90;;;-141.84;85.15;18442.25;5091112;28;20725;-62
2022/10/08 01:35:30;;;;;;;8.90;7.70;;;11.60;99.90;;;-141.84;85.15;18428.03;5088263;28;20306;-63
2022/10/08 01:38:05;;;;;;;10.87;8.20;;;11.60;99.90;;;-141.84;85.20;18480.84;5089315;28;20636;-63
2022/10/08 01:40:39;;;;;;;9.40;8.30;;;11.60;99.90;;;-141.84;84.92;18448.34;5091212;28;20192;-63
2022/10/08 01:43:12;;;;;;;9.70;7.67;;;11.70;99.90;;;-141.84;84.97;18413.78;5090167;28;20235;-63
2022/10/08 01:45:49;;;;;;;9.93;7.77;;;11.70;99.90;;;-141.84;85.20;18448.34;5089118;28;20226;-64
2022/10/08 01:48:26;;;;;;;9.90;7.57;;;11.70;99.90;;;-141.84;85.17;18442.25;5090112;28;20642;-63
2022/10/08 01:51:03;;;;;;;9.13;8.20;;;11.70;99.90;;;-141.84;84.90;18462.56;5089963;28;20227;-62
2022/10/08 01:53:39;;;;;;;8.80;7.73;;;11.70;99.90;;;-141.84;84.76;18432.09;5090132;28;20227;-63
2022/10/08 01:56:16;;;;;;;9.47;7.70;;;11.80;99.90;;;-141.84;84.67;18430.06;5089696;28;20195;-62
2022/10/08 01:58:53;;;;;;;8.83;6.93;;;11.70;99.90;;;-141.84;84.76;18434.13;5090676;28;20194;-63
2022/10/08 02:01:32;;;;;;;9.63;7.60;;;11.70;99.90;;;-141.84;84.84;18462.56;5099746;28;20215;-64
2022/10/08 02:06:55;;;;;;;8.10;7.30;;;11.70;99.90;;;-141.84;84.48;18397.53;5110216;28;20225;-62
2022/10/08 02:09:26;;;;;;;9.07;7.23;;;11.80;99.90;;;-141.84;84.52;18456.47;5110099;28;20234;-64
2022/10/08 02:11:55;;;;;;;10.37;7.67;;;11.70;99.90;;;-141.84;84.55;18430.06;5109336;28;20226;-63
2022/10/08 02:14:27;;;;;;;9.07;7.30;;;11.80;99.90;;;-141.84;84.13;18430.06;5110082;28;20900;-63
2022/10/08 02:17:15;;;;;;;8.77;7.40;;;11.80;99.90;;;-141.84;84.23;18446.31;5109783;28;20601;-63
2022/10/08 02:19:54;;;;;;;7.93;7.13;;;11.80;99.90;;;-141.84;84.30;18428.03;5110674;28;20187;-63
2022/10/08 02:22:33;;;;;;;10.47;8.13;;;11.80;99.90;;;-141.84;84.33;18395.50;5110458;28;20207;-65
2022/10/08 02:25:12;;;;;;;8.93;7.77;;;11.80;99.90;;;-141.84;84.15;18434.13;5109798;28;20268;-63
2022/10/08 02:27:54;;;;;;;7.60;6.80;;;11.80;99.90;;;-141.84;83.98;18391.44;5109940;28;20223;-63
2022/10/08 02:30:26;;;;;;;9.40;7.53;;;11.80;99.90;;;-141.84;84.17;18415.81;5109169;28;20233;-64
2022/10/08 02:33:02;;;;;;;7.73;6.67;;;11.70;99.90;;;-141.84;84.27;18423.94;5089312;28;20232;-64
2022/10/08 02:35:39;;;;;;;9.33;7.60;;;11.70;99.90;;;-141.84;84.43;18407.69;5089250;28;20223;-63
2022/10/08 02:38:16;;;;;;;10.00;7.43;;;11.70;99.90;;;-141.84;84.49;18446.31;5090375;28;20206;-65
2022/10/08 02:40:50;;;;;;;10.27;7.40;;;11.70;99.90;;;-141.84;84.53;18399.56;5089900;28;20195;-63
2022/10/08 02:43:24;;;;;;;10.20;7.60;;;11.70;99.90;;;-141.84;84.27;18415.81;5090262;28;20204;-62
2022/10/08 02:46:00;;;;;;;8.47;7.13;;;11.70;99.90;;;-141.84;84.22;18415.81;5089517;28;20734;-64
2022/10/08 02:48:34;;;;;;;7.93;7.20;;;11.70;99.90;;;-141.84;84.30;18379.25;5089697;28;20652;-63
2022/10/08 02:51:07;;;;;;;9.40;7.70;;;11.70;99.90;;;-141.84;84.69;18438.19;5089708;28;20223;-62
2022/10/08 02:53:40;;;;;;;9.73;7.43;;;11.70;99.90;;;-141.84;84.66;18383.31;5089906;28;20232;-63
2022/10/08 02:56:14;;;;;;;9.40;7.80;;;11.70;99.90;;;-141.84;84.66;18401.59;5089018;28;20352;-65
2022/10/08 02:58:45;;;;;;;12.17;7.60;;;11.70;99.90;;;-141.84;84.69;18438.19;5089651;28;20188;-63
2022/10/08 03:01:25;;;;;;;10.33;8.27;;;11.70;99.90;;;-141.84;84.83;18419.88;5089052;28;20235;-62
2022/10/08 03:04:03;;;;;;;9.57;7.37;;;11.80;99.90;;;-141.84;84.78;18401.59;5089611;28;20251;-63
2022/10/08 03:06:33;;;;;;;9.20;7.40;;;11.80;99.90;;;-141.84;84.70;18407.69;5089510;28;20442;-64
2022/10/08 03:09:05;;;;;;;8.07;7.27;;;11.80;99.90;;;-141.84;84.53;18391.44;5089570;28;20281;-64
2022/10/08 03:11:35;;;;;;;8.60;7.70;;;11.70;99.90;;;-141.84;84.65;18405.66;5089732;28;20223;-62
2022/10/08 03:14:08;;;;;;;10.07;7.60;;;11.80;99.90;;;-141.84;84.77;18375.19;5089910;28;20208;-65
2022/10/08 03:16:41;;;;;;;8.53;7.63;;;11.70;99.90;;;-141.84;84.47;18405.66;5093332;28;20185;-63
2022/10/08 03:19:12;;;;;;;9.53;7.80;;;11.70;99.90;;;-141.84;84.44;18405.66;5092817;28;20227;-64
2022/10/08 03:21:44;;;;;;;10.03;7.43;;;11.70;99.90;;;-141.84;84.71;18383.31;5092872;28;20228;-63
2022/10/08 03:24:14;;;;;;;8.57;7.67;;;11.70;99.90;;;-141.84;84.82;18383.31;5091958;28;20227;-63
2022/10/08 03:26:43;;;;;;;8.80;7.63;;;11.50;99.90;;;-141.84;84.79;18419.88;5092422;28;20224;-63
2022/10/08 03:29:11;;;;;;;9.70;7.43;;;11.70;99.90;;;-141.84;84.65;18371.13;5092765;28;20220;-63
2022/10/08 03:31:41;;;;;;;10.30;7.90;;;11.70;99.90;;;-141.84;84.42;18425.97;5093509;28;20214;-62
2022/10/08 03:34:09;;;;;;;8.43;7.37;;;11.70;99.90;;;-141.84;84.32;18379.25;5092397;28;20273;-63
2022/10/08 03:36:37;;;;;;;9.50;8.17;;;11.70;99.90;;;-141.84;84.64;18379.25;5093023;28;20629;-63
2022/10/08 03:39:05;;;;;;;11.50;7.97;;;11.70;99.90;;;-141.84;85.13;18377.22;5092636;28;20231;-65
2022/10/08 03:41:33;;;;;;;9.90;8.20;;;11.70;99.90;;;-141.84;84.83;18377.22;5092646;28;20224;-62
2022/10/08 03:44:01;;;;;;;9.40;7.53;;;11.70;99.90;;;-141.84;84.77;18358.94;5092696;28;20223;-62
2022/10/08 03:46:29;;;;;;;9.77;7.33;;;11.70;99.90;;;-141.84;84.92;18369.09;5093573;28;20203;-63
2022/10/08 03:48:59;;;;;;;8.83;7.93;;;11.70;99.90;;;-141.84;85.37;18367.06;5091462;28;20242;-63
2022/10/08 03:51:27;;;;;;;9.20;8.30;;;11.80;99.90;;;-141.84;85.69;18373.16;5091786;28;20226;-63
2022/10/08 03:53:55;;;;;;;9.20;7.70;;;11.60;99.90;;;-141.84;85.62;18310.19;5092257;28;20235;-62
2022/10/08 03:56:24;;;;;;;8.30;7.50;;;11.60;99.90;;;-141.84;85.66;18354.88;5092137;28;20220;-63
2022/10/08 03:58:54;;;;;;;7.57;6.87;;;11.60;99.90;;;-141.84;85.84;18375.19;5092073;28;20195;-64
2022/10/08 04:01:23;;;;;;;9.43;7.30;;;11.70;99.90;;;-141.84;85.95;18324.41;5093084;28;20200;-63
2022/10/08 04:03:52;;;;;;;8.90;8.00;;;11.60;99.90;;;-141.84;85.97;18322.38;5091962;28;20235;-61
2022/10/08 04:06:21;;;;;;;11.70;8.30;;;11.60;99.90;;;-141.84;85.90;18330.50;5092165;28;20235;-64
2022/10/08 04:08:49;;;;;;;9.43;7.60;;;11.60;99.90;;;-141.84;86.14;18346.75;5091601;28;20223;-64
2022/10/08 04:11:19;;;;;;;10.50;8.50;;;11.60;99.90;;;-141.84;86.24;18330.50;5092314;28;20227;-63
2022/10/08 04:13:47;;;;;;;8.57;7.77;;;11.60;99.90;;;-141.84;86.31;18285.81;5092016;28;20200;-62
2022/10/08 04:16:18;;;;;;;9.97;8.50;;;11.50;99.90;;;-141.84;86.55;18285.81;5092308;28;20463;-63
2022/10/08 04:18:47;;;;;;;10.27;8.70;;;11.50;99.90;;;-141.84;86.57;18308.16;5091638;28;20730;-65
2022/10/08 04:21:18;;;;;;;8.67;7.73;;;11.50;99.90;;;-141.84;86.53;18338.63;5092102;28;20269;-63
2022/10/08 04:23:49;;;;;;;12.70;8.97;;;11.40;99.90;;;-141.84;86.57;18300.03;5091591;28;20231;-64
2022/10/08 04:26:17;;;;;;;11.23;8.97;;;11.50;99.90;;;-141.84;86.77;18316.28;5091074;28;20231;-63
2022/10/08 04:28:46;;;;;;;13.37;9.13;;;11.40;99.90;;;-141.84;86.92;18275.66;5092050;28;20200;-63
2022/10/08 04:31:17;;;;;;;12.13;8.80;;;11.40;99.90;;;-141.84;87.26;18322.38;5091678;28;20224;-63
2022/10/08 04:33:47;;;;;;;9.87;8.37;;;11.40;99.90;;;-141.84;87.26;18259.41;5091169;28;20285;-62
2022/10/08 04:36:18;;;;;;;10.63;9.27;;;11.40;99.90;;;-141.84;87.33;18275.66;5091228;28;20738;-62
2022/10/08 04:38:48;;;;;;;12.90;9.10;;;11.40;99.90;;;-141.84;87.03;18302.06;5091560;28;20227;-62
2022/10/08 04:41:18;;;;;;;10.47;8.50;;;11.50;99.90;;;-141.84;87.07;18269.56;5091790;28;20223;-62
2022/10/08 04:43:47;;;;;;;10.77;8.87;;;11.50;99.90;;;-141.84;87.24;18269.56;5091556;28;20188;-63
2022/10/08 04:46:21;;;;;;;10.33;8.77;;;11.50;99.90;;;-141.84;86.96;18257.38;5091276;28;20258;-63
2022/10/08 04:48:52;;;;;;;10.57;8.37;;;11.50;99.90;;;-141.84;86.80;18298.00;5090954;28;20723;-64
2022/10/08 04:51:23;;;;;;;10.80;9.40;;;11.60;99.90;;;-141.84;86.88;18295.97;5091417;28;20258;-63
2022/10/08 04:53:54;;;;;;;11.27;8.93;;;11.60;99.90;;;-141.84;86.81;18287.84;5091234;28;20311;-62
2022/10/08 04:56:25;;;;;;;10.13;9.00;;;11.60;99.90;;;-141.84;86.71;18318.31;5090763;28;20257;-62
2022/10/08 04:58:53;;;;;;;14.07;8.57;;;11.60;99.90;;;-141.84;86.60;18318.31;5091373;28;20192;-63
2022/10/08 05:01:23;;;;;;;9.83;8.80;;;11.70;99.90;;;-141.84;86.34;18310.19;5091339;28;20215;-61
2022/10/08 05:03:55;;;;;;;12.10;9.00;;;11.60;99.90;;;-141.84;86.49;18287.84;5090113;28;20694;-62
2022/10/08 05:06:26;;;;;;;9.40;8.40;;;11.60;99.90;;;-141.84;86.32;18285.81;5109507;28;20429;-62
2022/10/08 05:09:01;;;;;;;11.97;10.50;;;11.60;99.90;;;-141.84;86.33;18306.13;5111087;28;20249;-62
2022/10/08 05:11:30;;;;;;;13.10;11.73;;;11.60;99.90;;;-141.84;86.02;18298.00;5111317;28;20731;-62
2022/10/08 05:13:59;;;;;;;12.03;10.90;;;11.70;99.90;;;-141.84;85.89;18295.97;5111234;28;20263;-62
2022/10/08 05:16:27;;;;;;;13.10;11.00;;;11.70;99.90;;;-141.84;86.06;18257.38;5111488;28;20682;-62
2022/10/08 05:18:57;;;;;;;12.03;10.67;;;11.70;99.90;;;-141.84;86.23;18300.03;5110872;28;20219;-62
2022/10/08 05:21:28;;;;;;;12.40;10.27;;;11.60;99.90;;;-141.84;86.28;18267.53;5111207;28;20601;-62
2022/10/08 05:24:00;;;;;;;11.00;9.97;;;11.60;99.90;;;-141.84;86.49;18273.63;5110856;28;20239;-62
2022/10/08 05:26:31;;;;;;;10.53;8.67;;;11.50;99.90;;;-141.84;86.57;18239.09;5111450;28;20215;-62
2022/10/08 05:29:19;;;;;;;10.50;9.40;;;11.50;99.90;;;-141.84;86.46;18265.50;5110322;28;20578;-62
2022/10/08 05:31:47;;;;;;;9.80;8.53;;;11.50;99.90;;;-141.84;86.62;18228.91;5098372;28;20269;-61
2022/10/08 05:34:16;;;;;;;12.10;8.90;;;11.50;99.90;;;-141.84;86.87;18239.09;5090538;28;20216;-62
2022/10/08 05:36:44;;;;;;;10.63;8.60;;;11.50;99.90;;;-141.84;87.18;18277.69;5089816;28;20251;-62
2022/10/08 05:39:14;;;;;;;12.03;9.10;;;11.50;99.90;;;-141.84;87.31;18253.31;5090103;28;20228;-63
2022/10/08 05:41:42;;;;;;;11.30;9.00;;;11.50;99.90;;;-141.84;86.87;18269.56;5090178;28;20239;-64
2022/10/08 05:44:11;;;;;;;13.27;9.60;;;11.50;99.90;;;-141.84;86.85;18251.28;5090118;28;20231;-62
2022/10/08 05:46:40;;;;;;;9.13;8.17;;;11.50;99.90;;;-141.84;86.64;18265.50;5090346;28;20200;-63
2022/10/08 05:49:17;;;;;;;11.37;8.70;;;11.60;99.90;;;-141.84;86.66;18273.63;5089563;28;20663;-62
2022/10/08 05:51:45;;;;;;;10.33;8.23;;;11.60;99.90;;;-141.84;86.69;18259.41;5090159;28;20227;-61
2022/10/08 05:54:15;;;;;;;14.40;9.50;;;11.60;99.90;;;-141.84;86.57;18275.66;5089161;28;20231;-63
2022/10/08 05:56:43;;;;;;;11.27;8.63;;;11.70;99.90;;;-141.84;86.39;18289.88;5089145;28;20694;-62
2022/10/08 05:59:18;;;;;;;11.43;8.97;;;11.70;99.90;;;-141.84;85.21;18293.94;5089901;28;20228;-62
2022/10/08 06:01:47;;;;;;;11.27;8.73;;;11.70;99.90;;;-141.84;84.88;18271.59;5090329;28;20211;-64
2022/10/08 06:04:18;;;;;;;13.73;9.20;;;11.80;99.90;;;-141.84;84.60;18295.97;5089843;28;20281;-62
2022/10/08 06:06:49;;;;;;;9.27;8.30;;;11.80;99.90;;;-141.84;83.71;18302.06;5089640;28;20266;-62
2022/10/08 06:09:22;;;;;;;10.57;8.70;;;11.90;99.90;;;-141.84;83.80;18320.34;5089543;28;20231;-63
2022/10/08 06:11:50;;;;;;;10.43;8.80;;;11.90;99.90;;;-141.84;83.50;18352.84;5089700;28;20224;-62
2022/10/08 06:14:19;;;;;;;12.90;9.60;;;11.90;99.90;;;-141.84;83.45;18334.56;5088915;28;20219;-62
2022/10/08 06:16:47;;;;;;;12.07;8.27;;;11.90;99.90;;;-141.84;83.16;18322.38;5090032;28;20220;-63
2022/10/08 06:19:18;;;;;;;10.73;8.30;;;12.00;99.90;;;-141.84;83.08;18346.75;5081436;28;20216;-63
2022/10/08 06:21:46;;;;;;;9.73;7.70;;;12.00;99.90;;;-141.84;83.05;18332.53;5089142;28;20228;-63
2022/10/08 06:24:18;;;;;;;10.07;8.27;;;12.00;99.90;;;-141.84;83.01;18356.91;5089309;28;20242;-62
2022/10/08 06:26:46;;;;;;;10.43;8.13;;;12.00;99.90;;;-141.84;82.95;18365.03;5089816;28;20235;-63
2022/10/08 06:29:17;;;;;;;12.83;8.43;;;12.00;99.90;;;-141.84;82.82;18373.16;5089412;28;20224;-64
2022/10/08 06:31:46;;;;;;;12.20;8.90;;;12.10;99.90;;;-141.84;82.24;18371.13;5101804;28;20583;-64
2022/10/08 06:34:14;;;;;;;9.07;7.90;;;12.20;99.90;;;-141.84;81.33;18391.44;5110267;28;20671;-63
2022/10/08 06:36:42;;;;;;;9.23;7.90;;;12.30;99.90;;;-141.84;81.15;18436.16;5109914;28;20230;-62
2022/10/08 06:39:13;;;;;;;9.87;7.97;;;12.50;99.90;;;-141.84;80.83;18452.41;5109716;28;20223;-62
2022/10/08 06:41:43;;;;;;;8.10;7.30;;;12.60;99.90;;;-141.84;80.39;18480.84;5109423;28;20222;-62
2022/10/08 06:44:14;;;;;;;11.60;8.80;;;12.70;99.90;;;-141.84;77.71;18529.59;5110230;28;20219;-62
2022/10/08 06:46:42;;;;;;;10.95;8.55;;;12.80;99.90;;;-141.84;77.18;18560.06;5111025;28;20245;-61
2022/10/08 06:49:12;;;;;;;10.00;7.93;;;13.00;99.90;;;-141.84;76.09;18606.81;5110791;28;20272;-64
2022/10/08 06:51:40;;;;;;;12.70;7.77;;;13.20;99.90;;;-141.84;72.84;18712.47;5114153;28;20249;-62
2022/10/08 06:54:08;;;;;;;11.82;7.93;;;13.30;99.90;;;-141.84;72.27;18789.66;5114483;28;20222;-63
2022/10/08 06:56:38;;;;;;;14.95;7.22;;;13.40;99.90;;;-141.84;72.03;18781.53;5115020;28;20230;-62
2022/10/08 06:59:07;;;;;;;9.00;6.13;;;13.50;99.90;;;-141.84;71.78;18826.25;5115147;28;20263;-62
2022/10/08 07:01:35;;;;;;;9.57;7.07;;;13.60;99.90;;;-141.84;70.90;18872.97;5104069;28;20200;-63
2022/10/08 07:04:05;;;;;;;9.77;6.43;;;13.60;99.90;;;-141.84;71.25;18856.72;5105277;28;20252;-63
2022/10/08 07:06:34;;;;;;;9.40;6.88;;;13.60;99.90;;;-141.84;70.45;18852.66;5114809;27;20276;-63
2022/10/08 07:09:05;;;;;;;8.77;7.10;;;13.60;99.90;;;-141.84;70.35;18866.88;5114955;27;20215;-62
2022/10/08 07:11:33;;;;;;;10.47;6.70;;;13.60;99.90;;;-141.84;69.86;18887.19;5114865;28;20216;-64
2022/10/08 07:14:02;;;;;;;11.15;5.57;;;13.60;99.90;;;-141.84;69.83;18929.88;5115003;28;20607;-61
2022/10/08 07:16:31;;;;;;;6.20;5.20;;;13.60;99.90;;;-141.84;68.45;19037.56;5115506;28;20240;-62
2022/10/08 07:18:59;;;;;;;7.47;5.70;;;13.70;99.90;;;-141.84;68.57;19007.06;5113870;28;20227;-61
2022/10/08 07:21:29;;;;;;;8.75;5.25;;;13.80;99.90;;;-141.84;67.97;19066.00;5112425;27;20227;-63
2022/10/08 07:24:00;;;;;;;7.83;5.10;;;13.80;99.90;;;-141.84;67.99;19094.44;5113152;28;20223;-63
2022/10/08 07:26:33;;;;;;;8.38;4.38;;;14.00;99.90;;;-141.84;68.35;19094.44;5113846;27;20219;-62
2022/10/08 07:29:04;;;;;;;7.03;4.50;;;13.90;99.90;;;-141.84;68.52;19063.97;5113581;28;20184;-61
2022/10/08 07:31:36;;;;;;;8.75;4.40;;;14.00;99.90;;;-141.84;67.25;19159.47;5103253;28;20662;-63
2022/10/08 07:34:07;;;;;;;10.68;5.18;;;14.00;99.90;;;-141.84;66.75;19232.63;5091298;28;20227;-62
2022/10/08 07:36:36;;;;;;;7.15;4.97;;;14.10;99.90;;;-141.84;66.02;19285.47;5091198;28;20231;-62
2022/10/08 07:39:07;;;;;;;6.30;4.78;;;14.20;99.90;;;-141.84;65.00;19399.25;5092511;28;20224;-62
2022/10/08 07:41:35;;;;;;;7.75;5.05;;;14.30;99.90;;;-141.84;65.34;19368.78;5092806;28;20242;-62
2022/10/08 07:44:05;;;;;;;5.90;4.25;;;14.40;99.90;;;-141.84;63.11;19567.94;5092523;28;20618;-62
2022/10/08 07:46:37;;;;;;;8.68;3.97;;;14.60;99.90;;;-141.84;63.97;19547.59;5101195;28;20603;-65
2022/10/08 07:49:05;;;;;;;6.95;4.10;;;14.70;99.90;;;-141.84;63.83;19590.28;5113708;28;20229;-61
2022/10/08 07:51:34;;;;;;;6.45;3.83;;;14.80;99.90;;;-141.84;62.18;19744.75;5113621;28;20230;-62
2022/10/08 07:54:05;;;;;;;4.90;4.00;;;15.00;99.90;;;-141.84;60.96;19905.28;5113737;28;20227;-62
2022/10/08 07:56:35;;;;;;;9.90;4.18;;;15.20;99.90;;;-141.84;60.84;19935.78;5113448;28;20219;-62
2022/10/08 07:59:05;;;;;;;8.80;4.20;;;15.20;99.90;;;-141.84;60.92;19941.88;5113518;28;20671;-62
2022/10/08 08:01:35;;;;;;;5.97;4.10;;;15.20;99.90;;;-141.84;61.51;19882.94;5112543;28;20206;-61
2022/10/08 08:04:07;;;;;;;6.68;3.70;;;15.10;99.90;;;-141.84;62.28;19850.41;5113198;28;20229;-62
2022/10/08 08:06:41;;;;;;;6.35;4.30;;;15.00;99.90;;;-141.84;61.31;19889.03;5113446;27;20635;-63
2022/10/08 08:09:10;;;;;;;10.00;4.20;;;15.10;99.90;;;-141.84;60.89;19925.63;5113383;28;20233;-62
2022/10/08 08:11:39;;;;;;;7.70;4.15;;;15.10;99.90;;;-141.84;60.48;19984.56;5113324;28;20308;-62
2022/10/08 08:14:07;;;;;;;5.47;3.55;;;15.20;99.90;;;-141.84;60.18;20013.00;5113556;28;20232;-61
2022/10/08 08:16:36;;;;;;;7.78;3.63;;;15.30;99.90;;;-141.84;60.30;20039.44;5113015;28;20196;-61
2022/10/08 08:19:04;;;;;;;7.13;4.30;;;15.30;99.90;;;-141.84;59.68;20118.69;5113065;28;20310;-61
2022/10/08 08:21:36;;;;;;;6.65;3.55;;;15.40;99.90;;;-141.84;59.17;20092.28;5113302;28;20238;-61
2022/10/08 08:24:11;;;;;;;7.43;3.30;;;15.50;99.90;;;-141.84;59.27;20153.25;5113295;28;20238;-62
2022/10/08 08:26:43;;;;;;;9.80;3.63;;;15.50;99.90;;;-141.84;58.30;20183.75;5113189;28;20227;-63
2022/10/08 08:29:13;;;;;;;5.57;2.90;;;15.60;99.90;;;-141.84;58.44;20183.75;5113200;28;20219;-61
2022/10/08 08:31:45;;;;;;;5.20;3.05;;;15.60;99.90;;;-141.84;58.06;20248.78;5100393;28;20226;-61
2022/10/08 08:34:17;;;;;;;9.35;3.50;;;15.60;99.90;;;-141.84;57.84;20287.41;5092436;28;20637;-61
2022/10/08 08:36:48;;;;;;;7.55;3.13;;;15.70;99.90;;;-141.84;58.16;20309.75;5091149;28;20698;-62
2022/10/08 08:39:19;;;;;;;9.88;3.75;;;15.80;99.90;;;-141.84;58.10;20338.22;5092019;28;20227;-62
2022/10/08 08:42:22;;;;;;;7.97;2.92;;;15.90;99.90;;;-141.84;55.95;20419.53;5091814;28;20227;-63
2022/10/08 08:44:59;;;;;;;5.70;2.72;;;16.10;99.90;;;-141.84;55.92;20407.34;5091554;28;20223;-62
2022/10/08 08:47:35;;;;;;;8.10;3.10;;;16.10;99.90;;;-141.84;56.73;20395.13;5096134;28;20215;-62
2022/10/08 08:50:15;;;;;;;5.22;3.83;;;16.10;99.90;;;-141.84;56.40;20423.59;5111766;28;20601;-64
2022/10/08 08:52:43;;;;;;;5.03;3.05;;;16.00;99.90;;;-141.84;56.56;20431.72;5100684;27;20208;-62
2022/10/08 08:55:16;;;;;;;5.80;2.83;;;16.00;99.90;;;-141.84;55.86;20480.50;5090977;28;20304;-62
2022/10/08 08:57:57;;;;;;;8.75;3.22;;;16.00;99.90;;;-141.84;56.19;20454.09;5090914;28;20762;-63
2022/10/08 09:00:35;;;;;;;4.70;3.00;;;16.10;99.90;;;-141.84;56.13;20474.41;5091407;28;20238;-62
2022/10/08 09:03:16;;;;;;;6.18;2.85;;;16.10;99.90;;;-141.84;55.87;20498.81;5111128;28;20235;-62
2022/10/08 09:05:49;;;;;;;6.07;2.55;;;16.20;99.90;;;-141.84;54.93;20563.84;5106001;28;20227;-62
2022/10/08 09:08:23;;;;;;;6.60;2.33;;;16.30;99.90;;;-141.84;54.46;20533.34;5109756;28;20699;-61
2022/10/08 09:10:57;;;;;;;7.82;2.53;;;16.30;99.90;;;-141.84;54.98;20527.25;5111802;28;20196;-64
2022/10/08 09:13:30;;;;;;;5.38;2.30;;;16.30;99.90;;;-141.84;54.53;20547.59;5111207;28;20180;-63
2022/10/08 09:15:59;;;;;;;4.78;2.30;;;16.30;99.90;;;-141.84;54.69;20529.28;5111480;28;20219;-63
2022/10/08 09:18:29;;;;;;;6.05;2.70;;;16.40;99.90;;;-141.84;53.39;20598.41;5111202;28;20223;-64
2022/10/08 09:20:57;;;;;;;4.88;2.25;;;16.50;99.90;;;-141.84;53.14;20614.66;5111167;28;20591;-64
2022/10/08 09:23:27;;;;;;;5.63;2.05;;;16.60;99.90;;;-141.84;52.05;20693.94;5111305;28;20714;-63
2022/10/08 09:26:02;;;;;;;5.60;2.20;;;16.80;99.90;;;-141.84;52.61;20669.56;5109779;28;20435;-63
2022/10/08 09:28:44;;;;;;;2.85;1.95;;;16.80;99.90;;;-141.84;52.74;20693.94;5110756;28;20186;-64
2022/10/08 09:31:26;;;;;;;5.85;2.22;;;16.80;99.90;;;-141.84;51.79;20716.31;5111460;27;20701;-64
2022/10/08 09:34:05;;;;;;;4.20;1.83;;;16.90;99.90;;;-141.84;51.64;20767.13;5111239;28;20227;-64
2022/10/08 09:36:37;;;;;;;5.85;1.90;;;17.00;99.90;;;-141.84;51.42;20769.16;5111401;28;20226;-65
2022/10/08 09:39:16;;;;;;;6.07;2.10;;;17.00;99.90;;;-141.84;52.33;20661.44;5111046;28;20242;-65
2022/10/08 09:41:47;;;;;;;5.65;2.08;;;16.90;99.90;;;-141.84;52.77;20610.59;5110438;28;20231;-64
2022/10/08 09:44:19;;;;;;;5.43;2.85;;;16.60;99.90;;;-141.84;53.01;20596.38;5109694;28;20222;-63
2022/10/08 09:46:49;;;;;;;6.60;2.58;;;16.60;99.90;;;-141.84;52.61;20708.19;5109847;28;20191;-63
2022/10/08 09:49:30;;;;;;;4.20;2.10;;;16.60;99.90;;;-141.84;51.20;20775.25;5111105;28;20212;-64
2022/10/08 09:52:06;;;;;;;4.10;2.28;;;16.90;99.90;;;-141.84;50.59;20848.44;5109820;28;20223;-64
2022/10/08 09:54:44;;;;;;;6.90;2.20;;;17.20;99.90;;;-141.84;49.01;20903.34;5110327;28;20219;-64
2022/10/08 09:57:18;;;;;;;7.95;2.58;;;17.50;99.90;;;-141.84;49.61;20950.09;5109898;28;20633;-65
2022/10/08 09:59:53;;;;;;;5.18;2.70;;;17.60;99.90;;;-141.84;48.75;20958.22;5110763;28;20223;-64
2022/10/08 10:02:30;;;;;;;5.68;1.90;;;17.70;99.90;;;-141.84;48.14;21025.31;5093121;28;20219;-65
2022/10/08 10:05:03;;;;;;;5.35;2.20;;;18.00;99.90;;;-141.84;48.66;21047.69;5090715;28;20191;-65
2022/10/08 10:07:41;;;;;;;5.47;2.00;;;18.20;99.90;;;-141.84;47.15;21061.91;5090018;28;20203;-64
2022/10/08 10:10:22;;;;;;;6.38;1.98;;;18.40;99.90;;;-141.84;46.57;21133.06;5089762;28;20572;-65
2022/10/08 10:12:56;;;;;;;3.72;1.52;;;18.60;99.90;;;-141.84;45.79;21236.75;5088998;28;20227;-64
2022/10/08 10:15:33;;;;;;;5.25;2.17;;;18.90;99.90;;;-141.84;45.42;21311.97;5089358;28;20234;-64
2022/10/08 10:18:11;;;;;;;4.80;2.03;;;19.10;99.90;;;-141.84;46.10;21242.84;5089811;28;20231;-62
2022/10/08 10:20:46;;;;;;;4.25;1.70;;;19.10;99.90;;;-141.84;46.34;21171.69;5089855;28;20310;-66
2022/10/08 10:23:23;;;;;;;5.10;2.30;;;18.90;99.90;;;-141.84;47.20;21133.06;5090682;28;20611;-64
2022/10/08 10:25:58;;;;;;;4.20;2.03;;;18.60;99.90;;;-141.84;48.22;21013.13;5094217;28;20699;-64
2022/10/08 10:28:41;;;;;;;4.85;1.77;;;18.40;99.90;;;-141.84;48.17;21070.03;5095049;28;20212;-64
2022/10/08 10:31:16;;;;;;;4.75;1.95;;;18.30;99.90;;;-141.84;48.53;21078.16;5094410;28;20700;-65